createdAt,value
2022-09-13T00:01:45.107Z,1.08
2022-09-13T00:04:11.913Z,1.10
2022-09-13T00:06:38.497Z,1.50
2022-09-13T00:09:05.178Z,1.13
2022-09-13T00:11:31.838Z,1.40
2022-09-13T00:13:58.670Z,1.30
2022-09-13T00:23:45.599Z,1.30
2022-09-13T00:26:14.253Z,1.20
2022-09-13T00:28:41.265Z,1.23
2022-09-13T00:31:09.226Z,1.10
2022-09-13T00:33:36.015Z,1.30
2022-09-13T00:36:06.829Z,1.48
2022-09-13T00:48:37.763Z,1.38
2022-09-13T00:51:06.251Z,1.58
2022-09-13T00:53:34.099Z,1.45
2022-09-13T00:56:02.814Z,1.20
2022-09-13T01:03:49.524Z,1.27
2022-09-13T01:06:18.715Z,1.23
2022-09-13T01:08:47.667Z,1.40
2022-09-13T01:11:22.904Z,1.40
2022-09-13T01:13:51.270Z,1.05
2022-09-13T01:16:18.168Z,1.17
2022-09-13T01:18:44.831Z,1.50
2022-09-13T01:21:49.794Z,1.40
2022-09-13T01:24:16.472Z,1.50
2022-09-13T01:26:51.003Z,1.40
2022-09-13T01:29:20.411Z,1.48
2022-09-13T01:31:48.527Z,1.25
2022-09-13T01:36:56.254Z,1.60
2022-09-13T01:39:32.178Z,1.42
2022-09-13T01:42:09.992Z,1.50
2022-09-13T01:44:42.676Z,1.63
2022-09-13T01:47:23.272Z,1.17
2022-09-13T01:57:50.624Z,1.40
2022-09-13T02:00:18.497Z,1.75
2022-09-13T02:05:16.987Z,1.70
2022-09-13T02:07:46.760Z,1.77
2022-09-13T02:12:43.501Z,1.50
2022-09-13T02:15:17.051Z,1.60
2022-09-13T02:17:47.429Z,1.60
2022-09-13T02:20:20.185Z,1.63
2022-09-13T02:25:17.687Z,1.48
2022-09-13T02:27:46.857Z,1.90
2022-09-13T02:30:14.528Z,1.70
2022-09-13T02:32:49.511Z,1.67
2022-09-13T02:35:24.878Z,1.65
2022-09-13T02:38:00.521Z,1.40
2022-09-13T02:48:04.625Z,1.58
2022-09-13T02:55:39.223Z,1.50
2022-09-13T02:58:27.163Z,1.45
2022-09-13T03:00:54.789Z,1.90
2022-09-13T03:03:21.554Z,1.95
2022-09-13T03:08:14.669Z,1.92
2022-09-13T03:16:08.596Z,1.60
2022-09-13T03:18:38.163Z,2.25
2022-09-13T03:24:03.992Z,1.95
2022-09-13T03:31:33.414Z,1.85
2022-09-13T03:34:07.161Z,1.80
2022-09-13T03:42:24.333Z,1.80
2022-09-13T03:44:52.628Z,2.13
2022-09-13T03:47:20.616Z,2.42
2022-09-13T03:49:47.508Z,2.65
2022-09-13T03:57:23.893Z,2.00
2022-09-13T03:59:54.468Z,2.15
2022-09-13T04:02:22.359Z,1.80
2022-09-13T04:04:49.418Z,1.85
2022-09-13T04:07:17.753Z,2.05
2022-09-13T04:17:05.531Z,2.05
2022-09-13T04:19:32.365Z,1.98
2022-09-13T04:21:59.191Z,1.83
2022-09-13T04:39:06.958Z,1.80
2022-09-13T04:41:34.673Z,1.50
2022-09-13T04:44:02.120Z,1.40
2022-09-13T04:46:29.065Z,1.73
2022-09-13T04:48:55.885Z,1.67
2022-09-13T04:51:23.676Z,1.90
2022-09-13T04:56:23.452Z,1.65
2022-09-13T04:58:53.900Z,2.10
2022-09-13T05:01:23.035Z,1.75
2022-09-13T05:06:21.120Z,1.90
2022-09-13T05:08:55.430Z,2.17
2022-09-13T05:13:55.501Z,2.42
2022-09-13T05:18:48.277Z,2.22
2022-09-13T05:21:15.067Z,2.60
2022-09-13T05:28:33.719Z,2.88
2022-09-13T05:31:05.206Z,2.70
2022-09-13T05:33:33.220Z,2.92
2022-09-13T05:35:59.820Z,4.00
2022-09-13T05:38:26.448Z,5.20
2022-09-13T05:40:57.220Z,5.25
2022-09-13T05:43:26.365Z,3.90
2022-09-13T05:46:13.523Z,2.92
2022-09-13T05:48:40.789Z,3.35
2022-09-13T05:51:12.023Z,2.50
2022-09-13T05:58:30.907Z,2.17
2022-09-13T06:00:57.623Z,2.17
2022-09-13T06:03:24.408Z,2.17
2022-09-13T06:05:54.585Z,2.13
2022-09-13T06:08:21.232Z,2.42
2022-09-13T06:10:57.713Z,2.00
2022-09-13T06:13:25.196Z,2.00
2022-09-13T06:15:52.358Z,2.78
2022-09-13T06:18:19.415Z,2.55
2022-09-13T06:20:46.317Z,2.40
2022-09-13T06:23:13.140Z,2.40
2022-09-13T06:28:05.267Z,2.15
2022-09-13T06:30:31.921Z,2.70
2022-09-13T06:32:58.569Z,2.53
2022-09-13T06:35:25.465Z,3.55
2022-09-13T06:37:54.999Z,2.63
2022-09-13T06:40:25.255Z,2.33
2022-09-13T06:42:52.126Z,2.67
2022-09-13T06:45:18.957Z,2.90
2022-09-13T06:47:45.586Z,2.65
2022-09-13T06:50:12.455Z,2.67
2022-09-13T06:52:39.179Z,2.72
2022-09-13T06:55:09.506Z,2.97
2022-09-13T06:57:38.807Z,2.83
2022-09-13T07:00:05.855Z,3.03
2022-09-13T07:02:32.884Z,2.97
2022-09-13T07:04:59.501Z,2.92
2022-09-13T07:07:26.241Z,4.13
2022-09-13T07:09:52.915Z,3.65
2022-09-13T07:12:20.698Z,3.53
2022-09-13T07:14:47.613Z,3.60
2022-09-13T07:17:14.682Z,3.85
2022-09-13T07:19:41.449Z,3.80
2022-09-13T07:22:08.154Z,3.13
2022-09-13T07:24:34.832Z,3.55
2022-09-13T07:27:01.496Z,3.63
2022-09-13T07:31:54.748Z,2.67
2022-09-13T07:34:22.527Z,2.72
2022-09-13T07:36:50.331Z,2.65
2022-09-13T07:39:22.072Z,2.67
2022-09-13T07:41:49.750Z,2.15
2022-09-13T07:44:16.510Z,2.20
2022-09-13T07:46:45.903Z,2.40
2022-09-13T07:49:13.994Z,2.63
2022-09-13T07:54:10.007Z,2.10
2022-09-13T07:56:38.108Z,2.10
2022-09-13T07:59:06.170Z,3.05
2022-09-13T08:01:36.080Z,2.75
2022-09-13T08:04:07.263Z,2.50
2022-09-13T08:06:34.760Z,2.55
2022-09-13T08:09:01.580Z,2.38
2022-09-13T08:11:37.344Z,2.72
2022-09-13T08:14:05.466Z,2.58
2022-09-13T08:16:32.442Z,2.30
2022-09-13T08:19:00.316Z,2.30
2022-09-13T08:21:27.367Z,2.78
2022-09-13T08:23:59.822Z,1.90
2022-09-13T08:26:30.236Z,2.30
2022-09-13T08:28:58.304Z,1.92
2022-09-13T08:31:25.317Z,2.05
2022-09-13T08:44:19.478Z,2.08
2022-09-13T08:54:14.519Z,2.50
2022-09-13T08:56:44.366Z,2.03
2022-09-13T09:01:57.543Z,2.15
2022-09-13T09:09:41.332Z,2.13
2022-09-13T09:12:34.596Z,2.35
2022-09-13T09:15:04.366Z,2.35
2022-09-13T09:20:17.624Z,2.30
2022-09-13T09:22:45.186Z,2.20
2022-09-13T09:25:12.025Z,2.38
2022-09-13T09:27:38.667Z,2.15
2022-09-13T09:30:06.713Z,2.72
2022-09-13T09:32:34.036Z,3.45
2022-09-13T09:35:03.664Z,3.58
2022-09-13T09:40:04.614Z,2.70
2022-09-13T09:42:35.256Z,2.95
2022-09-13T09:45:06.784Z,2.40
2022-09-13T09:47:42.113Z,2.83
2022-09-13T09:50:14.359Z,3.40
2022-09-13T10:19:38.789Z,3.90
2022-09-13T10:22:10.378Z,3.20
2022-09-13T10:24:36.999Z,2.47
2022-09-13T10:27:05.436Z,2.33
2022-09-13T10:29:32.237Z,2.30
2022-09-13T10:32:01.347Z,2.05
2022-09-13T10:34:31.098Z,2.10
2022-09-13T10:37:00.549Z,1.75
2022-09-13T10:39:28.628Z,1.77
2022-09-13T10:44:34.186Z,2.03
2022-09-13T10:47:03.146Z,2.50
2022-09-13T10:49:38.173Z,2.88
2022-09-13T10:52:23.424Z,2.22
2022-09-13T10:54:50.040Z,2.03
2022-09-13T10:57:28.888Z,2.35
2022-09-13T11:02:22.805Z,2.22
2022-09-13T11:09:55.374Z,2.35
2022-09-13T11:25:56.647Z,2.20
2022-09-13T11:28:41.997Z,2.22
2022-09-13T11:31:27.444Z,2.25
2022-09-13T11:34:03.364Z,2.22
2022-09-13T11:36:29.971Z,2.40
2022-09-13T11:39:02.852Z,2.30
2022-09-13T11:41:38.947Z,1.92
2022-09-13T11:46:52.109Z,2.08
2022-09-13T11:51:46.228Z,2.28
2022-09-13T11:54:24.099Z,2.20
2022-09-13T11:56:57.179Z,2.00
2022-09-13T12:04:37.779Z,2.50
2022-09-13T12:07:16.109Z,2.10
2022-09-13T12:09:52.012Z,2.22
2022-09-13T12:12:21.726Z,2.63
2022-09-13T12:17:45.418Z,2.33
2022-09-13T12:22:45.814Z,2.67
2022-09-13T12:25:18.233Z,2.65
2022-09-13T12:30:23.943Z,2.95
2022-09-13T12:32:52.655Z,4.30
2022-09-13T12:40:33.795Z,3.13
2022-09-13T12:54:11.575Z,2.67
2022-09-13T13:01:48.861Z,2.60
2022-09-13T13:04:15.579Z,2.20
2022-09-13T13:06:48.415Z,1.92
2022-09-13T13:11:48.899Z,2.25
2022-09-13T13:14:45.358Z,2.67
2022-09-13T13:17:30.773Z,2.60
2022-09-13T13:19:57.502Z,2.55
2022-09-13T13:25:26.562Z,3.08
2022-09-13T13:27:55.225Z,3.72
2022-09-13T13:30:42.481Z,3.03
2022-09-13T13:33:19.618Z,2.42
2022-09-13T13:35:46.588Z,2.53
2022-09-13T13:38:16.289Z,2.22
2022-09-13T13:40:43.066Z,2.33
2022-09-13T13:43:28.086Z,2.60
2022-09-13T13:53:46.669Z,2.55
2022-09-13T13:58:49.676Z,2.42
2022-09-13T14:01:18.720Z,2.33
2022-09-13T14:03:59.077Z,2.42
2022-09-13T14:06:31.224Z,3.05
2022-09-13T14:12:08.040Z,2.90
2022-09-13T14:14:43.657Z,2.88
2022-09-13T14:17:25.946Z,2.60
2022-09-13T14:19:55.788Z,2.42
2022-09-13T14:22:23.334Z,2.35
2022-09-13T14:29:49.912Z,2.40
2022-09-13T14:32:18.486Z,2.60
2022-09-13T14:34:52.793Z,2.40
2022-09-13T14:37:22.313Z,2.60
2022-09-13T14:40:16.362Z,2.60
2022-09-13T14:42:43.924Z,2.72
2022-09-13T14:45:14.551Z,3.13
2022-09-13T14:52:48.562Z,3.40
2022-09-13T14:55:18.412Z,3.40
2022-09-13T15:00:15.005Z,3.38
2022-09-13T15:02:45.166Z,3.60
2022-09-13T15:05:16.479Z,3.30
2022-09-13T15:07:43.578Z,3.70
2022-09-13T15:10:10.886Z,3.63
2022-09-13T15:12:38.469Z,3.33
2022-09-13T15:15:20.357Z,3.60
2022-09-13T15:20:20.848Z,4.22
2022-09-13T15:22:47.607Z,4.57
2022-09-13T15:27:47.514Z,3.72
2022-09-13T15:42:47.430Z,3.13
2022-09-13T15:45:14.429Z,3.80
2022-09-13T15:50:06.760Z,3.88
2022-09-13T15:52:33.446Z,4.50
2022-09-13T15:55:00.884Z,3.88
2022-09-13T15:57:28.860Z,4.03
2022-09-13T15:59:56.806Z,4.70
2022-09-13T16:02:25.743Z,4.50
2022-09-13T16:04:52.580Z,4.60
2022-09-13T16:07:19.851Z,4.47
2022-09-13T16:12:12.096Z,4.97
2022-09-13T16:14:38.963Z,5.10
2022-09-13T16:17:07.659Z,4.97
2022-09-13T16:19:34.900Z,4.97
2022-09-13T16:22:01.708Z,5.15
2022-09-13T16:26:54.101Z,5.40
2022-09-13T16:29:20.799Z,4.82
2022-09-13T16:31:47.564Z,4.63
2022-09-13T16:34:14.338Z,3.78
2022-09-13T16:36:40.964Z,4.50
2022-09-13T16:39:07.572Z,4.20
2022-09-13T16:41:34.267Z,4.18
2022-09-13T16:44:02.079Z,4.50
2022-09-13T16:46:30.092Z,5.25
2022-09-13T16:48:57.446Z,5.00
2022-09-13T16:51:57.767Z,5.15
2022-09-13T17:07:16.473Z,3.90
2022-09-13T17:09:43.420Z,4.18
2022-09-13T17:12:10.811Z,3.65
2022-09-13T17:22:03.046Z,2.65
2022-09-13T17:24:30.832Z,2.75
2022-09-13T17:29:25.578Z,2.80
2022-09-13T17:31:52.998Z,3.03
2022-09-13T17:36:48.201Z,2.70
2022-09-13T17:39:17.830Z,2.80
2022-09-13T17:41:44.656Z,2.80
2022-09-13T17:44:12.625Z,2.97
2022-09-13T17:46:39.447Z,3.00
2022-09-13T18:02:04.658Z,3.80
2022-09-13T18:04:31.572Z,3.80
2022-09-13T18:06:58.322Z,3.63
2022-09-13T18:09:25.637Z,4.00
2022-09-13T18:11:52.344Z,3.53
2022-09-13T18:14:19.469Z,3.80
2022-09-13T18:21:37.844Z,3.97
2022-09-13T18:24:07.077Z,3.97
2022-09-13T18:34:28.211Z,4.40
2022-09-13T18:41:48.642Z,4.28
2022-09-13T18:44:16.568Z,4.30
2022-09-13T18:46:43.596Z,4.50
2022-09-13T19:01:28.724Z,4.82
2022-09-13T19:03:57.266Z,5.05
2022-09-13T19:06:25.077Z,5.50
2022-09-13T19:08:52.503Z,5.43
2022-09-13T19:13:47.060Z,5.00
2022-09-13T19:16:15.883Z,5.65
2022-09-13T19:18:42.772Z,5.25
2022-09-13T19:21:18.599Z,6.10
2022-09-13T19:26:16.662Z,6.18
2022-09-13T19:36:08.475Z,6.20
2022-09-13T19:38:35.364Z,6.15
2022-09-13T19:41:04.427Z,6.97
2022-09-13T19:43:32.336Z,6.80
2022-09-13T19:50:56.787Z,6.32
2022-09-13T19:53:35.499Z,6.22
2022-09-13T19:56:11.318Z,6.28
2022-09-13T19:58:38.039Z,5.63
2022-09-13T20:01:08.946Z,5.55
2022-09-13T20:03:36.339Z,6.00
2022-09-13T20:06:04.432Z,5.85
2022-09-13T20:08:31.443Z,6.55
2022-09-13T20:11:00.285Z,6.22
2022-09-13T20:13:27.004Z,6.35
2022-09-13T20:15:53.799Z,6.25
2022-09-13T20:18:20.759Z,5.43
2022-09-13T20:20:48.882Z,5.80
2022-09-13T20:23:18.292Z,6.03
2022-09-13T20:25:46.250Z,5.75
2022-09-13T20:28:12.941Z,6.38
2022-09-13T20:30:41.592Z,6.00
2022-09-13T20:33:10.177Z,6.90
2022-09-13T20:40:27.991Z,7.00
2022-09-13T20:42:54.683Z,6.65
2022-09-13T20:45:21.740Z,7.03
2022-09-13T20:47:48.548Z,7.35
2022-09-13T20:50:15.370Z,6.63
2022-09-13T20:52:42.040Z,6.25
2022-09-13T20:57:34.646Z,7.03
2022-09-13T21:00:02.217Z,7.20
2022-09-13T21:02:29.651Z,7.30
2022-09-13T21:04:56.492Z,6.80
2022-09-13T21:07:41.820Z,6.13
2022-09-13T21:10:11.372Z,6.75
2022-09-13T21:12:38.885Z,6.40
2022-09-13T21:19:59.551Z,6.93
2022-09-13T21:22:26.779Z,6.55
2022-09-13T21:27:19.288Z,6.47
2022-09-13T21:29:46.027Z,6.55
2022-09-13T21:44:20.957Z,8.38
2022-09-13T21:51:43.033Z,9.75
2022-09-13T21:54:11.846Z,8.65
2022-09-13T21:56:41.264Z,9.70
2022-09-13T21:59:14.987Z,8.75
2022-09-13T22:09:04.814Z,9.20
2022-09-13T22:11:33.321Z,9.77
2022-09-13T22:14:00.286Z,10.02
2022-09-13T22:16:28.443Z,9.80
2022-09-13T22:21:23.186Z,10.25
2022-09-13T22:23:50.151Z,10.38
2022-09-13T22:28:43.871Z,10.63
2022-09-13T22:31:15.465Z,10.77
2022-09-13T22:33:42.588Z,10.65
2022-09-13T22:36:45.615Z,10.07
2022-09-13T22:41:39.198Z,10.15
2022-09-13T22:44:06.243Z,10.77
2022-09-13T22:46:37.361Z,10.25
2022-09-13T22:49:04.526Z,9.48
2022-09-13T22:51:31.161Z,10.05
2022-09-13T22:56:25.616Z,10.32
2022-09-13T22:58:53.276Z,10.50
2022-09-13T23:03:46.381Z,10.30
2022-09-13T23:06:14.417Z,10.05
2022-09-13T23:08:41.648Z,10.57
2022-09-13T23:11:11.213Z,11.15
2022-09-13T23:13:37.950Z,9.70
2022-09-13T23:18:31.819Z,10.00
2022-09-13T23:20:59.198Z,10.20
2022-09-13T23:23:26.312Z,10.30
2022-09-13T23:25:53.085Z,10.13
2022-09-13T23:28:19.784Z,10.55
2022-09-13T23:33:14.489Z,11.23
2022-09-13T23:35:41.168Z,10.98
2022-09-13T23:41:10.917Z,11.10
2022-09-13T23:43:37.651Z,10.60
2022-09-13T23:46:04.473Z,10.63
2022-09-13T23:50:58.297Z,12.02
2022-09-13T23:53:25.014Z,12.15
